Bay Pines, Florida
Current Conditions -  °F | °C
As of 11:53 AM on Wednesday 26 Nov 2014 (Local Time) from KPIE Reporting Station
Broken Clouds Broken Clouds  
Wind Chill: 58°   Ceiling: 12000
Heat Index: 58°   Visibility: 10mi
Dew Point: 50°   Wind: 14mph
Humidity: 75%   Direction: 340°NNW
Pressure: 30.18"   Gusts: NA
Location:  27.82°N, 82.78°W
Report Text: KPIE 261653Z 34012KT 10SM SCT025 BKN120 14/10 A3018 RMK AO2 SLP218 T01440100
Loading
Personal Weather Stations






























Interactive Weather Map New forecast layout! Learn more

10-Day Weather Forecast

Advertisements
Track Severe Weather on mobile